createdAt,value
2017-10-08T00:02:12.442Z,99.90
2017-10-08T00:04:40.050Z,99.90
2017-10-08T00:07:08.374Z,99.90
2017-10-08T00:09:36.719Z,99.90
2017-10-08T00:12:04.319Z,99.90
2017-10-08T00:14:32.941Z,99.90
2017-10-08T00:17:00.528Z,99.90
2017-10-08T00:19:28.108Z,99.90
2017-10-08T00:21:55.694Z,99.90
2017-10-08T00:24:24.077Z,99.90
2017-10-08T00:26:52.419Z,99.90
2017-10-08T00:29:20.022Z,99.90
2017-10-08T00:31:48.363Z,99.90
2017-10-08T00:34:15.982Z,99.90
2017-10-08T00:36:44.312Z,99.90
2017-10-08T00:39:11.884Z,99.90
2017-10-08T00:41:39.505Z,99.90
2017-10-08T00:44:07.092Z,99.90
2017-10-08T00:46:34.882Z,99.90
2017-10-08T00:49:02.510Z,99.90
2017-10-08T00:51:30.111Z,99.90
2017-10-08T00:53:57.714Z,99.90
2017-10-08T00:56:26.063Z,99.90
2017-10-08T00:58:53.649Z,99.90
2017-10-08T01:01:22.037Z,99.90
2017-10-08T01:03:50.404Z,99.90
2017-10-08T01:06:18.737Z,99.90
2017-10-08T01:08:46.347Z,99.90
2017-10-08T01:11:13.919Z,99.90
2017-10-08T01:13:41.505Z,99.90
2017-10-08T01:16:09.852Z,99.90
2017-10-08T01:18:37.470Z,99.90
2017-10-08T01:21:05.089Z,99.90
2017-10-08T01:23:32.784Z,99.90
2017-10-08T01:26:00.410Z,99.90
2017-10-08T01:28:29.522Z,99.90
2017-10-08T01:30:57.889Z,99.90
2017-10-08T01:33:25.489Z,99.90
2017-10-08T01:35:53.972Z,99.90
2017-10-08T01:38:22.341Z,99.90
2017-10-08T01:40:49.934Z,99.90
2017-10-08T01:43:17.588Z,99.90
2017-10-08T01:45:45.912Z,99.90
2017-10-08T01:48:13.500Z,99.90
2017-10-08T01:50:41.089Z,99.90
2017-10-08T01:53:09.432Z,99.90
2017-10-08T01:55:37.276Z,99.90
2017-10-08T01:58:04.853Z,99.90
2017-10-08T02:00:32.427Z,99.90
2017-10-08T02:03:00.081Z,99.90
2017-10-08T02:05:27.804Z,99.90
2017-10-08T02:07:56.151Z,99.90
2017-10-08T02:10:23.736Z,99.90
2017-10-08T02:12:52.829Z,99.90
2017-10-08T02:15:20.446Z,99.90
2017-10-08T02:17:48.058Z,99.90
2017-10-08T02:20:17.132Z,99.90
2017-10-08T02:22:44.707Z,99.90
2017-10-08T02:25:12.325Z,99.90
2017-10-08T02:27:39.922Z,99.90
2017-10-08T02:30:07.526Z,99.90
2017-10-08T02:32:36.192Z,99.90
2017-10-08T02:35:03.807Z,99.90
2017-10-08T02:37:31.379Z,99.90
2017-10-08T02:39:58.937Z,99.90
2017-10-08T02:42:26.557Z,99.90
2017-10-08T02:44:54.130Z,99.90
2017-10-08T02:47:21.724Z,99.90
2017-10-08T02:49:49.299Z,99.90
2017-10-08T02:52:16.884Z,99.90
2017-10-08T02:54:44.489Z,99.90
2017-10-08T02:57:12.061Z,99.90
2017-10-08T02:59:39.667Z,99.90
2017-10-08T03:02:07.313Z,99.90
2017-10-08T03:04:34.887Z,99.90
2017-10-08T03:07:02.507Z,99.90
2017-10-08T03:09:32.138Z,99.90
2017-10-08T03:12:00.567Z,99.90
2017-10-08T03:14:28.199Z,99.90
2017-10-08T03:16:55.776Z,99.90
2017-10-08T03:19:24.118Z,99.90
2017-10-08T03:21:51.719Z,99.90
2017-10-08T03:24:19.299Z,99.90
2017-10-08T03:26:46.894Z,99.90
2017-10-08T03:29:14.475Z,99.90
2017-10-08T03:31:42.078Z,99.90
2017-10-08T03:34:10.629Z,99.90
2017-10-08T03:36:38.982Z,99.90
2017-10-08T03:39:06.581Z,99.90
2017-10-08T03:41:34.151Z,99.90
2017-10-08T03:44:02.515Z,99.90
2017-10-08T03:46:30.093Z,99.90
2017-10-08T03:48:58.431Z,99.90
2017-10-08T03:51:26.024Z,99.90
2017-10-08T03:53:54.391Z,99.90
2017-10-08T03:56:21.952Z,99.90
2017-10-08T03:58:49.569Z,99.90
2017-10-08T04:01:17.160Z,99.90
2017-10-08T04:03:44.764Z,99.90
2017-10-08T04:06:12.334Z,99.90
2017-10-08T04:08:40.702Z,99.90
2017-10-08T04:11:08.985Z,99.90
2017-10-08T04:13:36.571Z,99.90
2017-10-08T04:16:04.953Z,99.90
2017-10-08T04:18:33.284Z,99.90
2017-10-08T04:21:00.900Z,99.90
2017-10-08T04:23:29.220Z,99.90
2017-10-08T04:25:56.812Z,99.90
2017-10-08T04:28:24.423Z,99.90
2017-10-08T04:30:52.762Z,99.90
2017-10-08T04:33:20.356Z,99.90
2017-10-08T04:35:48.721Z,99.90
2017-10-08T04:38:16.277Z,99.90
2017-10-08T04:40:43.895Z,99.90
2017-10-08T04:43:11.468Z,99.90
2017-10-08T04:45:39.890Z,99.90
2017-10-08T04:48:07.484Z,99.90
2017-10-08T04:50:35.860Z,99.90
2017-10-08T04:53:04.211Z,99.90
2017-10-08T04:55:35.086Z,99.90
2017-10-08T04:58:05.122Z,99.90
2017-10-08T05:00:35.690Z,99.90
2017-10-08T05:03:03.312Z,99.90
2017-10-08T05:05:35.089Z,99.90
2017-10-08T05:08:02.694Z,99.90
2017-10-08T05:10:30.312Z,99.90
2017-10-08T05:12:57.912Z,99.90
2017-10-08T05:15:25.538Z,99.90
2017-10-08T05:17:53.100Z,99.90
2017-10-08T05:20:20.689Z,99.90
2017-10-08T05:22:48.260Z,99.90
2017-10-08T05:25:15.820Z,99.90
2017-10-08T05:27:43.414Z,99.90
2017-10-08T05:30:10.999Z,99.90
2017-10-08T05:32:39.358Z,99.90
2017-10-08T05:35:06.973Z,99.90
2017-10-08T05:37:34.565Z,99.90
2017-10-08T05:40:02.138Z,99.90
2017-10-08T05:42:29.743Z,99.90
2017-10-08T05:44:58.092Z,99.90
2017-10-08T05:47:25.673Z,99.90
2017-10-08T05:49:53.225Z,99.90
2017-10-08T05:52:20.840Z,99.90
2017-10-08T05:54:48.423Z,99.90
2017-10-08T05:57:17.755Z,99.90
2017-10-08T05:59:45.375Z,99.90
2017-10-08T06:02:12.965Z,99.90
2017-10-08T06:04:40.555Z,99.90
2017-10-08T06:07:08.147Z,99.90
2017-10-08T06:09:36.464Z,99.90
2017-10-08T06:12:04.017Z,99.90
2017-10-08T06:14:31.596Z,99.90
2017-10-08T06:16:59.167Z,99.90
2017-10-08T06:19:26.748Z,99.90
2017-10-08T06:21:55.204Z,99.90
2017-10-08T06:24:22.885Z,99.90
2017-10-08T06:26:50.477Z,99.90
2017-10-08T06:29:18.333Z,99.90
2017-10-08T06:31:45.943Z,99.90
2017-10-08T06:34:14.296Z,99.90
2017-10-08T06:36:41.867Z,99.90
2017-10-08T06:39:09.748Z,99.90
2017-10-08T06:41:38.037Z,99.90
2017-10-08T06:44:06.392Z,99.90
2017-10-08T06:46:33.981Z,99.90
2017-10-08T06:49:02.341Z,99.90
2017-10-08T06:51:30.029Z,99.90
2017-10-08T06:53:58.436Z,99.90
2017-10-08T06:56:25.998Z,99.90
2017-10-08T06:58:53.640Z,99.90
2017-10-08T07:01:21.987Z,99.90
2017-10-08T07:03:49.541Z,99.90
2017-10-08T07:06:17.144Z,99.90
2017-10-08T07:08:45.472Z,99.90
2017-10-08T07:11:13.064Z,99.90
2017-10-08T07:13:40.681Z,99.90
2017-10-08T07:16:08.271Z,99.90
2017-10-08T07:18:36.137Z,99.90
2017-10-08T07:21:03.741Z,99.90
2017-10-08T07:23:31.902Z,99.90
2017-10-08T07:25:59.483Z,99.90
2017-10-08T07:28:27.122Z,99.90
2017-10-08T07:30:54.701Z,99.90
2017-10-08T07:33:22.289Z,99.90
2017-10-08T07:35:50.666Z,99.90
2017-10-08T07:38:18.245Z,99.90
2017-10-08T07:40:47.268Z,99.90
2017-10-08T07:43:14.881Z,99.90
2017-10-08T07:45:42.454Z,99.90
2017-10-08T07:48:10.031Z,99.90
2017-10-08T07:50:38.377Z,99.90
2017-10-08T07:53:06.051Z,99.90
2017-10-08T07:55:34.887Z,99.90
2017-10-08T07:58:02.498Z,99.90
2017-10-08T08:00:30.098Z,99.90
2017-10-08T08:02:58.428Z,99.90
2017-10-08T08:05:26.009Z,99.90
2017-10-08T08:07:53.590Z,99.90
2017-10-08T08:10:21.153Z,99.90
2017-10-08T08:12:48.759Z,99.90
2017-10-08T08:15:16.349Z,99.90
2017-10-08T08:17:43.922Z,99.90
2017-10-08T08:20:11.519Z,99.90
2017-10-08T08:22:39.102Z,99.90
2017-10-08T08:25:07.455Z,99.90
2017-10-08T08:27:35.021Z,99.90
2017-10-08T08:30:02.624Z,99.90
2017-10-08T08:32:30.212Z,99.90
2017-10-08T08:34:57.811Z,99.90
2017-10-08T08:37:25.406Z,99.90
2017-10-08T08:39:53.784Z,99.90
2017-10-08T08:42:22.125Z,99.90
2017-10-08T08:44:49.696Z,99.90
2017-10-08T08:47:17.296Z,99.90
2017-10-08T08:49:45.639Z,99.90
2017-10-08T08:52:13.234Z,99.90
2017-10-08T08:54:41.564Z,99.90
2017-10-08T08:57:09.227Z,99.90
2017-10-08T08:59:36.794Z,99.90
2017-10-08T09:02:04.394Z,99.90
2017-10-08T09:04:32.017Z,99.90
2017-10-08T09:06:59.902Z,99.90
2017-10-08T09:09:27.517Z,99.90
2017-10-08T09:11:55.869Z,99.90
2017-10-08T09:14:23.446Z,99.90
2017-10-08T09:16:51.067Z,99.90
2017-10-08T09:19:18.639Z,99.90
2017-10-08T09:21:46.192Z,99.90
2017-10-08T09:24:13.857Z,99.90
2017-10-08T09:26:41.414Z,99.90
2017-10-08T09:29:09.006Z,99.30
2017-10-08T09:31:36.616Z,97.90
2017-10-08T09:34:04.977Z,96.80
2017-10-08T09:36:32.751Z,96.80
2017-10-08T09:39:00.329Z,95.70
2017-10-08T09:41:28.679Z,92.10
2017-10-08T09:43:56.315Z,92.10
2017-10-08T09:46:23.885Z,92.20
2017-10-08T09:48:51.451Z,93.40
2017-10-08T09:51:19.105Z,94.20
2017-10-08T09:53:46.694Z,94.30
2017-10-08T09:56:14.277Z,95.60
2017-10-08T09:58:41.865Z,96.50
2017-10-08T10:01:10.608Z,98.20
2017-10-08T10:03:38.161Z,98.20
2017-10-08T10:06:05.736Z,98.70
2017-10-08T10:08:33.395Z,99.10
2017-10-08T10:11:00.985Z,99.50
2017-10-08T10:13:28.611Z,99.90
2017-10-08T10:15:56.201Z,99.90
2017-10-08T10:18:23.754Z,99.90
2017-10-08T10:20:51.345Z,99.90
2017-10-08T10:23:18.937Z,99.90
2017-10-08T10:25:47.298Z,99.90
2017-10-08T10:28:17.392Z,99.60
2017-10-08T10:30:44.998Z,99.60
2017-10-08T10:33:13.347Z,99.90
2017-10-08T10:35:41.105Z,99.90
2017-10-08T10:38:08.899Z,99.10
2017-10-08T10:40:36.481Z,99.30
2017-10-08T10:43:04.869Z,99.80
2017-10-08T10:45:33.205Z,99.90
2017-10-08T10:48:00.819Z,99.90
2017-10-08T10:50:29.178Z,99.90
2017-10-08T10:52:56.799Z,99.90
2017-10-08T10:55:24.413Z,99.10
2017-10-08T10:57:52.776Z,94.40
2017-10-08T11:00:20.389Z,94.40
2017-10-08T11:02:48.778Z,93.30
2017-10-08T11:05:16.399Z,92.80
2017-10-08T11:07:43.998Z,88.60
2017-10-08T11:10:11.902Z,86.10
2017-10-08T11:12:39.476Z,84.50
2017-10-08T11:15:07.055Z,84.30
2017-10-08T11:17:34.661Z,86.00
2017-10-08T11:20:02.229Z,87.50
2017-10-08T11:22:29.847Z,88.00
2017-10-08T11:24:57.404Z,89.60
2017-10-08T11:27:25.030Z,89.80
2017-10-08T11:29:52.645Z,87.00
2017-10-08T11:32:20.223Z,89.30
2017-10-08T11:34:47.817Z,88.80
2017-10-08T11:37:15.405Z,91.10
2017-10-08T11:39:42.995Z,91.20
2017-10-08T11:42:10.622Z,90.90
2017-10-08T11:44:38.306Z,90.40
2017-10-08T11:47:05.899Z,90.60
2017-10-08T11:49:33.470Z,89.00
2017-10-08T11:52:01.207Z,89.20
2017-10-08T11:54:28.801Z,89.30
2017-10-08T11:56:56.379Z,90.20
2017-10-08T11:59:24.747Z,90.10
2017-10-08T12:01:52.479Z,90.10
2017-10-08T12:04:20.053Z,90.50
2017-10-08T12:06:47.634Z,91.90
2017-10-08T12:09:15.207Z,91.70
2017-10-08T12:11:42.789Z,91.30
2017-10-08T12:14:11.190Z,92.40
2017-10-08T12:16:39.757Z,92.10
2017-10-08T12:19:08.078Z,92.70
2017-10-08T12:21:35.634Z,92.60
2017-10-08T12:24:03.249Z,92.00
2017-10-08T12:26:30.865Z,92.20
2017-10-08T12:28:58.482Z,92.60
2017-10-08T12:31:26.217Z,91.10
2017-10-08T12:33:53.791Z,90.70
2017-10-08T12:36:21.412Z,90.70
2017-10-08T12:38:48.983Z,90.30
2017-10-08T12:41:16.579Z,90.80
2017-10-08T12:43:44.156Z,88.20
2017-10-08T12:46:11.753Z,88.00
2017-10-08T12:48:40.119Z,89.20
2017-10-08T12:51:07.705Z,89.10
2017-10-08T12:53:36.067Z,85.70
2017-10-08T12:56:04.753Z,85.60
2017-10-08T12:58:32.476Z,83.90
2017-10-08T13:01:00.462Z,85.50
2017-10-08T13:03:28.055Z,88.50
2017-10-08T13:05:55.652Z,87.60
2017-10-08T13:08:24.034Z,90.60
2017-10-08T13:10:52.374Z,91.40
2017-10-08T13:13:19.985Z,91.40
2017-10-08T13:15:48.346Z,90.60
2017-10-08T13:18:16.733Z,91.00
2017-10-08T13:20:45.075Z,89.80
2017-10-08T13:23:12.645Z,89.80
2017-10-08T13:25:44.003Z,91.40
2017-10-08T13:28:11.593Z,90.70
2017-10-08T13:30:40.161Z,92.00
2017-10-08T13:33:07.815Z,91.90
2017-10-08T13:35:40.442Z,90.90
2017-10-08T13:38:08.072Z,91.70
2017-10-08T13:40:36.090Z,90.90
2017-10-08T13:43:03.723Z,91.10
2017-10-08T13:45:34.588Z,90.70
2017-10-08T13:48:02.201Z,91.20
2017-10-08T13:50:29.770Z,92.50
2017-10-08T13:52:57.345Z,92.10
2017-10-08T13:55:24.971Z,91.90
2017-10-08T13:57:52.560Z,91.50
2017-10-08T14:00:20.127Z,90.90
2017-10-08T14:02:47.732Z,90.20
2017-10-08T14:05:16.046Z,88.80
2017-10-08T14:07:43.714Z,88.70
2017-10-08T14:10:11.331Z,89.00
2017-10-08T14:12:40.055Z,90.10
2017-10-08T14:15:07.629Z,89.60
2017-10-08T14:17:35.239Z,88.50
2017-10-08T14:20:02.844Z,86.90
2017-10-08T14:22:30.446Z,88.00
2017-10-08T14:24:58.039Z,89.50
2017-10-08T14:27:26.387Z,87.70
2017-10-08T14:29:53.966Z,87.70
2017-10-08T14:32:21.589Z,89.50
2017-10-08T14:34:49.156Z,87.00
2017-10-08T14:37:16.830Z,86.10
2017-10-08T14:39:44.424Z,87.40
2017-10-08T14:42:11.997Z,88.60
2017-10-08T14:44:39.659Z,87.30
2017-10-08T14:47:07.320Z,89.50
2017-10-08T14:49:34.930Z,90.90
2017-10-08T14:52:02.503Z,90.50
2017-10-08T14:54:30.135Z,91.60
2017-10-08T14:56:57.701Z,90.80
2017-10-08T14:59:25.293Z,90.90
2017-10-08T15:01:52.905Z,90.50
2017-10-08T15:04:20.545Z,89.80
2017-10-08T15:06:48.126Z,90.00
2017-10-08T15:09:15.721Z,90.30
2017-10-08T15:11:43.288Z,90.40
2017-10-08T15:14:10.878Z,90.40
2017-10-08T15:16:38.504Z,91.10
2017-10-08T15:19:06.120Z,91.10
2017-10-08T15:21:33.730Z,91.00
2017-10-08T15:24:01.362Z,89.20
2017-10-08T15:26:28.998Z,90.10
2017-10-08T15:28:57.362Z,91.10
2017-10-08T15:31:25.706Z,91.20
2017-10-08T15:33:53.285Z,91.20
2017-10-08T15:36:20.859Z,90.70
2017-10-08T15:38:50.635Z,90.80
2017-10-08T15:41:18.237Z,90.90
2017-10-08T15:43:45.859Z,90.50
2017-10-08T15:46:13.470Z,90.00
2017-10-08T15:48:41.040Z,90.70
2017-10-08T15:51:08.760Z,92.50
2017-10-08T15:53:36.339Z,93.10
2017-10-08T15:56:03.989Z,93.80
2017-10-08T15:58:31.541Z,94.10
2017-10-08T16:00:59.127Z,94.00
2017-10-08T16:03:26.701Z,94.30
2017-10-08T16:05:54.333Z,94.90
2017-10-08T16:08:22.010Z,95.10
2017-10-08T16:10:49.585Z,95.90
2017-10-08T16:13:17.228Z,95.80
2017-10-08T16:15:44.797Z,95.70
2017-10-08T16:18:12.565Z,95.50
2017-10-08T16:20:40.154Z,96.50
2017-10-08T16:23:07.708Z,95.90
2017-10-08T16:25:35.289Z,95.20
2017-10-08T16:28:02.869Z,95.90
2017-10-08T16:30:30.444Z,96.10
2017-10-08T16:32:58.020Z,95.80
2017-10-08T16:35:26.381Z,96.30
2017-10-08T16:37:53.947Z,96.30
2017-10-08T16:40:21.509Z,96.20
2017-10-08T16:42:49.111Z,96.10
2017-10-08T16:45:16.681Z,96.20
2017-10-08T16:47:44.261Z,96.90
2017-10-08T16:50:11.856Z,96.70
2017-10-08T16:52:39.491Z,96.60
2017-10-08T16:55:07.260Z,96.40
2017-10-08T16:57:34.853Z,96.60
2017-10-08T17:00:02.494Z,97.00
2017-10-08T17:02:30.093Z,96.20
2017-10-08T17:04:57.681Z,97.20
2017-10-08T17:07:26.039Z,97.40
2017-10-08T17:09:53.631Z,97.30
2017-10-08T17:12:21.962Z,97.30
2017-10-08T17:14:49.572Z,97.20
2017-10-08T17:17:17.181Z,97.90
2017-10-08T17:19:44.736Z,97.60
2017-10-08T17:22:12.597Z,97.40
2017-10-08T17:24:40.885Z,97.90
2017-10-08T17:27:08.480Z,97.70
2017-10-08T17:29:36.144Z,97.90
2017-10-08T17:32:04.565Z,97.80
2017-10-08T17:34:32.910Z,98.10
2017-10-08T17:37:00.589Z,98.10
2017-10-08T17:39:28.169Z,97.90
2017-10-08T17:41:56.622Z,98.30
2017-10-08T17:44:24.235Z,98.20
2017-10-08T17:46:52.574Z,98.10
2017-10-08T17:49:20.161Z,98.10
2017-10-08T17:51:47.758Z,98.10
2017-10-08T17:54:15.316Z,98.30
2017-10-08T17:56:42.901Z,98.20
2017-10-08T17:59:10.559Z,98.30
2017-10-08T18:01:38.236Z,98.30
2017-10-08T18:04:06.133Z,98.40
2017-10-08T18:06:33.812Z,98.40
2017-10-08T18:09:01.408Z,98.60
2017-10-08T18:11:29.751Z,98.50
2017-10-08T18:13:57.395Z,98.50
2017-10-08T18:16:24.977Z,98.50
2017-10-08T18:18:52.818Z,99.10
2017-10-08T18:21:20.460Z,98.80
2017-10-08T18:23:48.060Z,98.80
2017-10-08T18:26:15.634Z,98.90
2017-10-08T18:28:43.313Z,99.00
2017-10-08T18:31:11.156Z,98.90
2017-10-08T18:33:38.922Z,99.20
2017-10-08T18:36:06.525Z,98.90
2017-10-08T18:38:34.129Z,98.80
2017-10-08T18:41:01.745Z,98.90
2017-10-08T18:43:29.409Z,98.80
2017-10-08T18:45:56.992Z,98.80
2017-10-08T18:48:24.836Z,99.10
2017-10-08T18:50:52.687Z,99.10
2017-10-08T18:53:20.273Z,99.10
2017-10-08T18:55:47.875Z,99.80
2017-10-08T18:58:15.495Z,99.90
2017-10-08T19:00:43.083Z,99.80
2017-10-08T19:03:10.729Z,99.90
2017-10-08T19:05:39.798Z,99.90
2017-10-08T19:08:08.910Z,99.90
2017-10-08T19:10:36.615Z,99.90
2017-10-08T19:13:04.244Z,99.90
2017-10-08T19:15:40.245Z,99.90
2017-10-08T19:18:08.683Z,99.90
2017-10-08T19:20:37.121Z,99.90
2017-10-08T19:23:05.472Z,99.40
2017-10-08T19:28:10.819Z,99.80
2017-10-08T19:30:38.470Z,99.80
2017-10-08T19:33:06.142Z,99.70
2017-10-08T19:35:33.717Z,99.30
2017-10-08T19:38:01.576Z,99.50
2017-10-08T19:40:29.342Z,99.50
2017-10-08T19:42:56.971Z,99.70
2017-10-08T19:45:25.492Z,99.60
2017-10-08T19:47:53.260Z,99.60
2017-10-08T19:50:21.031Z,99.50
2017-10-08T19:52:48.614Z,99.40
2017-10-08T19:55:16.363Z,99.40
2017-10-08T19:57:44.025Z,99.50
2017-10-08T20:00:11.899Z,99.70
2017-10-08T20:02:39.769Z,99.90
2017-10-08T20:05:07.419Z,99.80
2017-10-08T20:07:35.009Z,99.90
2017-10-08T20:10:02.571Z,99.80
2017-10-08T20:12:30.183Z,99.90
2017-10-08T20:14:58.523Z,99.70
2017-10-08T20:17:26.180Z,99.70
2017-10-08T20:19:53.807Z,99.70
2017-10-08T20:22:21.609Z,99.70
2017-10-08T20:24:49.215Z,99.40
2017-10-08T20:27:17.125Z,99.60
2017-10-08T20:29:45.571Z,99.50
2017-10-08T20:32:13.148Z,99.60
2017-10-08T20:34:41.977Z,99.50
2017-10-08T20:37:09.532Z,99.50
2017-10-08T20:39:37.109Z,99.50
2017-10-08T20:42:04.708Z,99.80
2017-10-08T20:44:32.285Z,99.90
2017-10-08T20:46:59.862Z,99.80
2017-10-08T20:49:28.213Z,99.80
2017-10-08T20:51:55.963Z,99.50
2017-10-08T20:54:23.773Z,99.70
2017-10-08T20:56:51.427Z,99.70
2017-10-08T20:59:19.061Z,99.70
2017-10-08T21:01:46.620Z,99.30
2017-10-08T21:04:14.248Z,99.40
2017-10-08T21:06:42.599Z,99.40
2017-10-08T21:09:10.155Z,99.40
2017-10-08T21:11:37.739Z,99.30
2017-10-08T21:14:05.504Z,99.70
2017-10-08T21:16:33.100Z,99.50
2017-10-08T21:19:01.436Z,99.80
2017-10-08T21:21:29.039Z,99.80
2017-10-08T21:23:57.423Z,99.60
2017-10-08T21:26:25.880Z,99.40
2017-10-08T21:28:53.471Z,99.40
2017-10-08T21:31:21.816Z,99.40
2017-10-08T21:33:49.397Z,99.40
2017-10-08T21:36:16.999Z,99.60
2017-10-08T21:38:44.579Z,99.60
2017-10-08T21:41:12.171Z,99.50
2017-10-08T21:43:39.772Z,99.60
2017-10-08T21:46:08.107Z,99.90
2017-10-08T21:48:35.664Z,99.90
2017-10-08T21:51:03.270Z,99.80
2017-10-08T21:53:31.650Z,99.90
2017-10-08T21:56:00.009Z,99.60
2017-10-08T21:58:27.612Z,99.50
2017-10-08T22:00:56.049Z,99.30
2017-10-08T22:03:23.614Z,99.30
2017-10-08T22:05:51.314Z,99.70
2017-10-08T22:08:19.642Z,99.90
2017-10-08T22:10:47.250Z,99.90
2017-10-08T22:13:14.861Z,99.90
2017-10-08T22:15:42.429Z,99.90
2017-10-08T22:18:10.038Z,99.90
2017-10-08T22:20:37.618Z,99.90
2017-10-08T22:23:05.949Z,99.90
2017-10-08T22:25:33.553Z,99.90
2017-10-08T22:28:01.144Z,99.90
2017-10-08T22:30:29.470Z,99.90
2017-10-08T22:32:57.114Z,99.90
2017-10-08T22:35:24.761Z,99.90
2017-10-08T22:37:52.612Z,99.90
2017-10-08T22:40:21.051Z,99.90
2017-10-08T22:42:48.668Z,99.90
2017-10-08T22:45:17.042Z,99.90
2017-10-08T22:47:45.361Z,99.90
2017-10-08T22:50:12.943Z,99.90
2017-10-08T22:52:40.530Z,99.90
2017-10-08T22:55:08.118Z,99.90
2017-10-08T22:57:36.474Z,99.90
2017-10-08T23:00:04.076Z,99.90
2017-10-08T23:02:32.416Z,99.90
2017-10-08T23:05:00.008Z,99.90
2017-10-08T23:07:28.338Z,99.90
2017-10-08T23:09:55.907Z,99.90
2017-10-08T23:12:23.829Z,99.90
2017-10-08T23:14:52.164Z,99.90
2017-10-08T23:17:19.889Z,99.90
2017-10-08T23:19:48.271Z,99.90
2017-10-08T23:22:15.824Z,99.90
2017-10-08T23:24:44.154Z,99.90
2017-10-08T23:27:11.742Z,99.90
2017-10-08T23:29:39.326Z,99.90
2017-10-08T23:32:07.677Z,99.90
2017-10-08T23:34:35.254Z,99.90
2017-10-08T23:37:02.843Z,99.90
2017-10-08T23:39:31.367Z,99.90
2017-10-08T23:42:00.073Z,99.90
2017-10-08T23:44:27.813Z,99.90
2017-10-08T23:46:55.398Z,99.90
2017-10-08T23:49:23.051Z,99.90
2017-10-08T23:51:50.950Z,99.90
2017-10-08T23:54:18.594Z,99.90
2017-10-08T23:56:46.166Z,99.90
2017-10-08T23:59:13.786Z,99.90
